הכול
Kane County Hospital Airport (Kanab, UT) UT02 מזג אוויר
There is no TAF data available at UT02 or any nearby airports.
There is no METAR data available at UT02. Showing METAR data for KKNB (3 mi דר').
Recent KNB METAR history (no data for UT02)
| Date | Time (MDT) | Flight Rules | Wind Dir. | Speed | Type | Height AGL (ft) | Visibility | Temp (°C) | Temp (°F) | Dew Point (°C) | Dew Point (°F) | Rel. Humid. | Pressure | Density Altitude | Remarks |
|---|---|---|---|---|---|---|---|---|---|---|---|---|---|---|---|
| 02-ספט | 06:55 | VFR | 20° | kt | 10 miles | 15° | 59° | 12° | 53° | 82% | 30.15 in Hg | 5,587 ft | |||
| 02-ספט | 06:15 | VFR | 40° | kt | 10 miles | 15° | 59° | 13° | 55° | 88% | 30.14 in Hg | 5,597 ft | |||
| 02-ספט | 05:55 | VFR | 30° | kt | 10 miles | 15° | 59° | 12° | 53° | 82% | 30.14 in Hg | 5,597 ft | |||
| 02-ספט | 05:15 | VFR | 50° | kt | 10 miles | 15° | 59° | 13° | 55° | 88% | 30.13 in Hg | 5,607 ft | |||
| 02-ספט | 04:55 | VFR | 20° | 1 kt | 10 miles | 15° | 59° | 13° | 55° | 88% | 30.13 in Hg | 5,607 ft | |||
| 02-ספט | 04:35 | VFR | 50° | kt | 10 miles | 15° | 59° | 13° | 55° | 88% | 30.13 in Hg | 5,607 ft | |||
| 02-ספט | 04:15 | VFR | 40° | kt | 10 miles | 15° | 59° | 12° | 53° | 82% | 30.14 in Hg | 5,597 ft | |||
| 02-ספט | 03:55 | VFR | 20° | kt | 10 miles | 15° | 59° | 12° | 53° | 82% | 30.14 in Hg | 5,597 ft | |||
| 02-ספט | 03:35 | VFR | 70° | kt | 10 miles | 15° | 59° | 12° | 53° | 82% | 30.14 in Hg | 5,597 ft | |||
| 02-ספט | 03:15 | VFR | 50° | kt | 10 miles | 15° | 59° | 12° | 53° | 82% | 30.15 in Hg | 5,587 ft | |||
| 02-ספט | 02:55 | VFR | 20° | kt | 10 miles | 16° | 60° | 12° | 53° | 77% | 30.15 in Hg | 5,707 ft | |||
| 02-ספט | 02:35 | VFR | 30° | kt | 10 miles | 16° | 60° | 13° | 55° | 82% | 30.15 in Hg | 5,707 ft | |||
| 02-ספט | 01:55 | VFR | 60° | 6 kt | 10 miles | 16° | 60° | 13° | 55° | 82% | 30.14 in Hg | 5,717 ft | |||
| 02-ספט | 01:35 | VFR | 30° | 2 kt | 10 miles | 17° | 62° | 13° | 55° | 77% | 30.14 in Hg | 5,837 ft | |||
| 02-ספט | 01:15 | VFR | 20° | 3 kt | 10 miles | 17° | 62° | 12° | 53° | 72% | 30.14 in Hg | 5,837 ft | |||
| 02-ספט | 00:55 | VFR | 70° | kt | 10 miles | 17° | 62° | 13° | 55° | 77% | 30.14 in Hg | 5,837 ft | |||
| 02-ספט | 00:35 | VFR | 30° | kt | 10 miles | 17° | 62° | 12° | 53° | 72% | 30.14 in Hg | 5,837 ft | |||
| 02-ספט | 00:15 | VFR | 40° | kt | 10 miles | 18° | 64° | 12° | 53° | 68% | 30.14 in Hg | 5,957 ft | |||
| 01-ספט | 23:55 | VFR | 60° | 4 kt | 10 miles | 18° | 64° | 12° | 53° | 68% | 30.14 in Hg | 5,957 ft | |||
| 01-ספט | 23:35 | VFR | 60° | kt | 10 miles | 18° | 64° | 12° | 53° | 68% | 30.14 in Hg | 5,957 ft | |||
| 01-ספט | 23:15 | VFR | 50° | kt | 10 miles | 19° | 66° | 12° | 53° | 64% | 30.14 in Hg | 6,077 ft | |||
| 01-ספט | 22:35 | VFR | 80° | kt | 10 miles | 18° | 64° | 13° | 55° | 73% | 30.13 in Hg | 5,967 ft | |||
| 01-ספט | 22:15 | VFR | 90° | kt | 10 miles | 18° | 64° | 13° | 55° | 73% | 30.13 in Hg | 5,967 ft | |||
| 01-ספט | 21:55 | VFR | 180° | kt | 10 miles | 20° | 68° | 11° | 51° | 56% | 30.12 in Hg | 6,217 ft |
כניסה לאתר
| אין תמיכה בדפדפן שלך. שדרג את הדפדפן שלך |
